Time;durP1;ratioP1;P1;durP2;ratioP2;P2;SDS_P1;SDS_P2;PMS_P1;PMS_P2;Temp;Humidity;BMP_temperature;BMP_pressure;BME280_temperature;BME280_humidity;BME280_pressure;Samples;Min_cycle;Max_cycle;Signal;HPM_P1;HPM_P2
2021/12/25 00:02:26;;;;;;;5.90;5.30;;;;;;;;;;5033304;28;20290;-57
2021/12/25 00:04:52;;;;;;;5.97;5.40;;;6.90;99.90;;;;;;5032922;28;20585;-54
2021/12/25 00:07:18;;;;;;;6.37;5.07;;;7.10;99.90;;;;;;5032992;28;20246;-55
2021/12/25 00:09:43;;;;;;;5.43;4.93;;;;;;;;;;5033273;28;20171;-58
2021/12/25 00:12:10;;;;;;;13.17;5.20;;;;;;;;;;5033134;28;20182;-57
2021/12/25 00:14:36;;;;;;;5.33;4.73;;;;;;;;;;5032800;28;20195;-58
2021/12/25 00:17:02;;;;;;;8.67;5.03;;;;;;;;;;5032925;28;20252;-55
2021/12/25 00:19:27;;;;;;;6.23;4.70;;;6.90;99.90;;;;;;5032824;28;20179;-56
2021/12/25 00:21:53;;;;;;;5.33;4.83;;;7.10;99.90;;;;;;5032652;28;20238;-56
2021/12/25 00:24:19;;;;;;;8.70;5.20;;;7.40;99.90;;;;;;5032647;28;20199;-59
2021/12/25 00:27:01;;;;;;;5.90;5.30;;;;;;;;;;5032614;28;20180;-58
2021/12/25 00:34:37;;;;;;;6.07;5.47;;;7.30;99.90;;;;;;5032759;28;20699;-56
2021/12/25 00:37:04;;;;;;;6.40;4.77;;;7.30;99.90;;;;;;5032847;28;20180;-54
2021/12/25 00:39:30;;;;;;;5.87;5.00;;;7.50;99.90;;;;;;5032694;28;20207;-51
2021/12/25 00:42:00;;;;;;;6.47;4.90;;;6.80;99.90;;;;;;5032617;28;20191;-53
2021/12/25 00:44:28;;;;;;;6.07;4.60;;;6.90;99.90;;;;;;5032062;28;20634;-52
2021/12/25 00:46:54;;;;;;;5.33;4.83;;;;;;;;;;5032478;28;20252;-55
2021/12/25 00:49:19;;;;;;;5.10;4.60;;;7.50;99.90;;;;;;5032321;28;20657;-53
2021/12/25 00:51:46;;;;;;;5.60;5.10;;;7.00;99.90;;;;;;5031863;28;20176;-52
2021/12/25 00:54:13;;;;;;;5.33;4.83;;;7.50;99.90;;;;;;5031817;28;20208;-56
2021/12/25 00:56:39;;;;;;;5.30;4.80;;;;;;;;;;5032366;28;20247;-56
2021/12/25 00:59:05;;;;;;;4.77;4.37;;;;;;;;;;5032135;28;20176;-59
2021/12/25 01:01:31;;;;;;;5.63;5.13;;;;;;;;;;5032357;28;20187;-53
2021/12/25 01:03:57;;;;;;;4.80;4.37;;;;;;;;;;5031733;28;20195;-57
2021/12/25 01:06:23;;;;;;;4.93;4.43;;;;;;;;;;5031701;28;20179;-54
2021/12/25 01:08:48;;;;;;;4.57;4.17;;;8.20;99.90;;;;;;5031574;28;20212;-52
2021/12/25 01:11:14;;;;;;;4.63;4.23;;;7.80;99.90;;;;;;5032894;28;20174;-50
2021/12/25 01:13:47;;;;;;;4.70;4.30;;;7.80;99.90;;;;;;5031958;28;20616;-52
2021/12/25 01:16:42;;;;;;;5.03;4.53;;;8.00;99.90;;;;;;5031587;28;20227;-52
2021/12/25 01:21:55;;;;;;;5.03;4.53;;;7.50;99.90;;;;;;5032001;28;20605;-54
2021/12/25 01:32:31;;;;;;;5.10;4.60;;;7.80;99.90;;;;;;5031824;28;20255;-51
2021/12/25 01:35:25;;;;;;;7.87;4.53;;;8.20;99.90;;;;;;5030848;28;20297;-52
2021/12/25 01:48:38;;;;;;;8.67;5.93;;;;;;;;;;5031478;28;20290;-52
2021/12/25 01:51:04;;;;;;;6.30;5.53;;;7.50;99.90;;;;;;5031753;28;20171;-57
2021/12/25 01:53:30;;;;;;;7.17;5.87;;;;;;;;;;5031526;28;20241;-54
2021/12/25 01:55:57;;;;;;;10.77;5.70;;;;;;;;;;5031380;28;20176;-57
2021/12/25 01:58:23;;;;;;;6.33;5.40;;;7.40;99.90;;;;;;5031418;28;20660;-52
2021/12/25 02:00:52;;;;;;;5.87;5.27;;;7.20;99.90;;;;;;5031630;28;20198;-55
2021/12/25 02:03:20;;;;;;;6.00;5.40;;;7.70;99.90;;;;;;5033737;28;20207;-52
2021/12/25 02:05:46;;;;;;;7.20;5.70;;;7.80;99.90;;;;;;5035256;28;20180;-52
2021/12/25 02:08:12;;;;;;;5.10;4.60;;;7.30;99.90;;;;;;5035330;28;20218;-55
2021/12/25 02:10:37;;;;;;;6.20;5.60;;;8.10;99.90;;;;;;5035452;28;20545;-54
2021/12/25 02:13:03;;;;;;;5.60;5.00;;;8.00;99.90;;;;;;5035419;28;20180;-53
2021/12/25 02:15:30;;;;;;;6.13;4.83;;;8.20;99.90;;;;;;5034850;28;20580;-54
2021/12/25 02:20:33;;;;;;;10.97;5.57;;;8.40;99.90;;;;;;5035150;28;20198;-56
2021/12/25 02:23:02;;;;;;;6.10;5.37;;;8.70;99.90;;;;;;5035361;28;20176;-51
2021/12/25 02:25:32;;;;;;;6.03;5.43;;;8.40;99.90;;;;;;5034724;28;20218;-52
2021/12/25 02:27:58;;;;;;;6.43;5.60;;;8.60;99.90;;;;;;5035011;28;20270;-52
2021/12/25 02:30:23;;;;;;;6.77;5.90;;;8.70;99.90;;;;;;5035041;28;20184;-55
2021/12/25 02:32:49;;;;;;;6.90;5.80;;;;;;;;;;5035114;28;20179;-54
2021/12/25 02:35:15;;;;;;;7.43;6.33;;;9.00;99.90;;;;;;5034496;28;20241;-56
2021/12/25 02:37:41;;;;;;;7.40;6.03;;;9.10;99.90;;;;;;5034992;28;20266;-53
2021/12/25 02:40:08;;;;;;;8.40;6.70;;;8.60;99.90;;;;;;5034932;28;20259;-56
2021/12/25 02:42:35;;;;;;;7.10;6.40;;;9.10;99.90;;;;;;5034798;28;20183;-56
2021/12/25 02:45:02;;;;;;;8.23;6.87;;;8.80;99.90;;;;;;5034577;28;20192;-55
2021/12/25 02:47:30;;;;;;;10.37;8.10;;;8.80;99.90;;;;;;5034688;28;20571;-58
2021/12/25 02:49:56;;;;;;;7.03;6.33;;;9.00;99.90;;;;;;5034849;28;20574;-58
2021/12/25 02:52:22;;;;;;;10.33;7.90;;;8.80;99.90;;;;;;5034614;28;20671;-51
2021/12/25 02:54:48;;;;;;;7.80;7.00;;;8.80;99.90;;;;;;5034327;28;20196;-57
2021/12/25 02:57:15;;;;;;;20.03;12.33;;;8.80;99.90;;;;;;5034311;28;20203;-56
2021/12/25 02:59:41;;;;;;;9.17;7.03;;;8.70;99.90;;;;;;5034659;28;20211;-56
2021/12/25 03:02:10;;;;;;;24.40;14.67;;;9.20;99.90;;;;;;5034553;28;20242;-54
2021/12/25 03:04:40;;;;;;;12.23;9.07;;;8.60;99.90;;;;;;5034186;28;20198;-56
2021/12/25 03:07:08;;;;;;;10.13;8.43;;;8.70;99.90;;;;;;5034231;28;20199;-56
2021/12/25 03:09:34;;;;;;;28.40;20.27;;;8.90;99.90;;;;;;5034404;28;20561;-54
2021/12/25 03:11:59;;;;;;;12.17;10.80;;;8.70;99.90;;;;;;5034461;28;20172;-56
2021/12/25 03:14:37;;;;;;;9.23;7.73;;;8.90;99.90;;;;;;5033138;28;20207;-55
2021/12/25 03:17:03;;;;;;;7.93;7.13;;;9.20;99.90;;;;;;5034268;28;20175;-55
2021/12/25 03:19:32;;;;;;;7.70;6.90;;;9.00;99.90;;;;;;5016400;28;20180;-58
2021/12/25 03:22:00;;;;;;;10.03;7.07;;;9.20;99.90;;;;;;5034069;28;20195;-54
2021/12/25 03:24:27;;;;;;;8.17;7.10;;;9.30;99.90;;;;;;5033525;28;20200;-52
2021/12/25 03:26:55;;;;;;;8.53;7.10;;;9.00;99.90;;;;;;5033908;28;20180;-54
2021/12/25 03:29:21;;;;;;;8.90;7.07;;;9.40;99.90;;;;;;5034201;28;20168;-51
2021/12/25 03:31:47;;;;;;;8.33;6.20;;;9.00;99.90;;;;;;5034143;28;20230;-52
2021/12/25 03:34:13;;;;;;;7.93;7.10;;;;;;;;;;5033519;28;20249;-56
2021/12/25 03:36:39;;;;;;;8.17;7.27;;;;;;;;;;5033892;28;20164;-54
2021/12/25 03:39:06;;;;;;;7.93;6.70;;;;;;;;;;5033651;28;20226;-51
2021/12/25 03:41:32;;;;;;;8.07;7.07;;;9.20;99.90;;;;;;5033645;28;20172;-53
2021/12/25 03:43:58;;;;;;;8.17;7.10;;;9.70;99.90;;;;;;5033435;28;20283;-49
2021/12/25 03:46:24;;;;;;;8.70;7.03;;;9.40;99.90;;;;;;5033449;28;20214;-53
2021/12/25 03:59:28;;;;;;;8.57;7.20;;;9.30;99.90;;;;;;5033605;28;20718;-51
2021/12/25 04:02:00;;;;;;;8.03;6.87;;;;;;;;;;5033212;28;20179;-56
2021/12/25 04:04:37;;;;;;;7.70;6.83;;;9.70;99.90;;;;;;5033164;28;20595;-51
2021/12/25 04:07:09;;;;;;;8.57;7.23;;;9.40;99.90;;;;;;5033001;28;20194;-55
2021/12/25 04:09:37;;;;;;;7.23;6.40;;;9.30;99.90;;;;;;5033457;28;20168;-52
2021/12/25 04:12:10;;;;;;;8.80;7.23;;;10.80;99.90;;;;;;5033003;28;20168;-54
2021/12/25 04:14:36;;;;;;;8.90;7.80;;;9.10;99.90;;;;;;5015075;28;20286;-52
2021/12/25 04:17:02;;;;;;;7.97;7.17;;;9.50;99.90;;;;;;5032900;28;20230;-51
2021/12/25 04:19:28;;;;;;;7.17;6.43;;;9.50;99.90;;;;;;5033183;28;20172;-53
2021/12/25 04:21:58;;;;;;;6.93;6.23;;;9.40;99.90;;;;;;5032898;28;20226;-53
2021/12/25 04:24:26;;;;;;;6.83;6.13;;;8.90;99.90;;;;;;5032821;28;20222;-52
2021/12/25 04:26:52;;;;;;;7.43;6.63;;;9.30;99.90;;;;;;5031742;28;20176;-54
2021/12/25 04:29:45;;;;;;;7.37;6.47;;;9.20;99.90;;;;;;5032697;28;20198;-55
2021/12/25 05:04:41;;;;;;;10.17;8.60;;;9.20;99.90;;;;;;4970956;28;20284;-53
2021/12/25 05:07:08;;;;;;;7.97;7.17;;;9.10;99.90;;;;;;4970568;28;20205;-55
2021/12/25 05:09:33;;;;;;;8.67;7.73;;;9.50;99.90;;;;;;4971225;28;20173;-51
2021/12/25 05:11:59;;;;;;;8.87;7.60;;;9.40;99.90;;;;;;4970726;28;20174;-54
2021/12/25 05:14:25;;;;;;;8.03;7.13;;;;;;;;;;5026992;28;20199;-53
2021/12/25 05:16:52;;;;;;;8.07;7.00;;;;;;;;;;5031860;28;20168;-54
2021/12/25 05:19:18;;;;;;;8.40;7.07;;;8.90;99.90;;;;;;5032111;28;20213;-56
2021/12/25 05:21:44;;;;;;;8.27;7.30;;;9.00;99.90;;;;;;5031949;28;20180;-51
2021/12/25 05:24:10;;;;;;;8.10;7.13;;;;;;;;;;5031654;28;20183;-54
2021/12/25 05:26:36;;;;;;;6.80;6.10;;;;;;;;;;5031917;28;20167;-56
2021/12/25 05:29:02;;;;;;;7.03;6.33;;;;;;;;;;5031795;28;20671;-54
2021/12/25 05:31:36;;;;;;;6.80;6.20;;;9.50;99.90;;;;;;5031661;28;20171;-57
2021/12/25 05:34:02;;;;;;;5.40;4.90;;;;;;;;;;5051576;22;20233;-86
2021/12/25 05:36:29;;;;;;;4.97;4.47;;;;;;;;;;5050255;28;20183;-86
2021/12/25 05:38:58;;;;;;;5.17;4.67;;;9.50;99.90;;;;;;5051541;28;20191;-86
2021/12/25 05:41:26;;;;;;;4.90;4.37;;;9.50;99.90;;;;;;5034240;28;20630;-87
2021/12/25 05:43:53;;;;;;;4.70;4.20;;;;;;;;;;5051864;28;20171;-86
2021/12/25 05:46:19;;;;;;;4.27;3.87;;;;;;;;;;5050732;28;20182;-87
2021/12/25 05:48:45;;;;;;;4.20;3.80;;;;;;;;;;5052224;28;20213;-85
2021/12/25 05:51:12;;;;;;;4.63;4.13;;;9.40;99.90;;;;;;5052274;28;20582;-85
2021/12/25 05:53:38;;;;;;;5.03;4.40;;;;;;;;;;5052065;28;20167;-85
2021/12/25 05:56:04;;;;;;;4.00;3.60;;;;;;;;;;5052116;28;20167;-85
2021/12/25 05:58:30;;;;;;;4.43;3.40;;;;;;;;;;5051852;28;20294;-87
2021/12/25 06:00:56;;;;;;;4.20;3.80;;;;;;;;;;5052065;28;20222;-86
2021/12/25 06:03:22;;;;;;;5.57;3.40;;;;;;;;;;5052186;28;20167;-86
2021/12/25 06:05:48;;;;;;;4.57;3.70;;;;;;;;;;5050346;28;20669;-86
2021/12/25 06:08:15;;;;;;;4.23;3.57;;;;;;;;;;5050766;28;20241;-85
2021/12/25 06:10:41;;;;;;;4.17;3.67;;;;;;;;;;5051939;28;20175;-86
2021/12/25 06:13:10;;;;;;;4.20;3.37;;;9.30;99.90;;;;;;5050648;28;20221;-86
2021/12/25 06:15:36;;;;;;;3.73;3.23;;;9.60;99.90;;;;;;5051753;28;20549;-86
2021/12/25 06:18:03;;;;;;;4.80;4.30;;;9.30;99.90;;;;;;5034203;28;20270;-86
2021/12/25 06:20:29;;;;;;;5.60;4.00;;;;;;;;;;5034280;28;20262;-86
2021/12/25 06:22:55;;;;;;;5.00;4.30;;;;;;;;;;5051923;28;20173;-86
2021/12/25 06:25:21;;;;;;;5.60;4.33;;;;;;;;;;5051722;28;20164;-86
2021/12/25 06:27:47;;;;;;;6.90;6.17;;;;;;;;;;5051689;28;20195;-86
2021/12/25 06:30:14;;;;;;;11.17;9.90;;;;;;;;;;5050777;28;20515;-87
2021/12/25 06:32:40;;;;;;;12.50;10.43;;;;;;;;;;5050736;28;20270;-86
2021/12/25 06:35:06;;;;;;;10.93;9.73;;;8.70;99.90;;;;;;5051581;28;20187;-86
2021/12/25 06:37:32;;;;;;;24.33;19.10;;;;;;;;;;5051604;28;20198;-86
2021/12/25 06:39:58;;;;;;;14.87;12.57;;;;;;;;;;5050400;28;20596;-86
2021/12/25 06:42:25;;;;;;;6.57;5.70;;;;;;;;;;5050506;28;20507;-87
2021/12/25 06:44:51;;;;;;;4.70;4.13;;;;;;;;;;5050316;28;20199;-87
2021/12/25 06:47:16;;;;;;;3.30;3.00;;;;;;;;;;5050180;28;20202;-87
2021/12/25 06:49:42;;;;;;;3.77;3.30;;;;;;;;;;5051901;28;20615;-86
2021/12/25 06:52:09;;;;;;;3.60;3.30;;;;;;;;;;5053863;28;20171;-87
2021/12/25 06:54:35;;;;;;;3.37;3.07;;;;;;;;;;5055188;28;20175;-88
2021/12/25 06:57:02;;;;;;;3.40;3.03;;;;;;;;;;5053837;28;20179;-87
2021/12/25 06:59:30;;;;;;;3.40;3.10;;;;;;;;;;5053901;28;20175;-87
2021/12/25 07:01:56;;;;;;;3.90;3.43;;;;;;;;;;5054039;28;20171;-87
2021/12/25 07:04:22;;;;;;;6.40;4.93;;;;;;;;;;5053450;28;20577;-87
2021/12/25 07:06:49;;;;;;;8.20;6.40;;;;;;;;;;5053642;28;20546;-87
2021/12/25 07:09:15;;;;;;;7.03;5.47;;;;;;;;;;5053219;28;20225;-88
2021/12/25 07:11:42;;;;;;;7.00;5.70;;;;;;;;;;5053799;28;20171;-86
2021/12/25 07:14:11;;;;;;;11.57;9.37;;;;;;;;;;5054470;28;20166;-86
2021/12/25 07:16:37;;;;;;;9.27;7.37;;;;;;;;;;5053525;28;20649;-86
2021/12/25 07:19:03;;;;;;;6.37;5.23;;;;;;;;;;5053191;28;20175;-86
2021/12/25 07:21:29;;;;;;;4.93;4.10;;;;;;;;;;5053557;28;20497;-86
2021/12/25 07:23:55;;;;;;;6.17;5.17;;;;;;;;;;5052987;28;20266;-86
2021/12/25 07:26:21;;;;;;;5.97;4.97;;;;;;;;;;5055024;28;20171;-87
2021/12/25 07:28:47;;;;;;;6.27;5.17;;;;;;;;;;5054704;28;20199;-87
2021/12/25 07:31:13;;;;;;;6.30;5.37;;;;;;;;;;5053249;28;20265;-86
2021/12/25 07:33:43;;;;;;;6.50;5.27;;;8.90;99.90;;;;;;5055577;28;20672;-88
2021/12/25 07:36:11;;;;;;;6.17;4.83;;;8.90;99.90;;;;;;5055727;28;20186;-88
2021/12/25 07:38:37;;;;;;;5.87;4.90;;;;;;;;;;5054217;28;20181;-88
2021/12/25 07:41:03;;;;;;;6.03;5.20;;;8.80;99.90;;;;;;5025290;28;20251;-89
2021/12/25 07:43:29;;;;;;;5.47;4.80;;;;;;;;;;5041934;28;20649;-87
2021/12/25 07:45:56;;;;;;;5.57;4.70;;;;;;;;;;5044240;28;20242;-86
2021/12/25 07:48:24;;;;;;;5.23;4.20;;;;;;;;;;5025858;28;20199;-87
2021/12/25 07:50:52;;;;;;;4.93;4.17;;;;;;;;;;5024757;28;20275;-87
2021/12/25 07:53:18;;;;;;;4.10;3.57;;;;;;;;;;5025121;28;20528;-87
2021/12/25 07:55:44;;;;;;;5.23;3.93;;;;;;;;;;5042000;28;20167;-87
2021/12/25 07:58:10;;;;;;;4.10;3.67;;;;;;;;;;5026586;28;20178;-88
2021/12/25 08:00:36;;;;;;;4.83;4.03;;;;;;;;;;5024845;28;20175;-88
2021/12/25 08:03:02;;;;;;;4.23;3.83;;;8.90;99.90;;;;;;5024963;28;20279;-87
2021/12/25 08:05:29;;;;;;;5.03;4.30;;;;;;;;;;5043641;28;20190;-87
2021/12/25 08:07:55;;;;;;;4.30;3.90;;;;;;;;;;5025327;28;20198;-88
2021/12/25 08:10:21;;;;;;;4.47;4.07;;;;;;;;;;5025287;28;20175;-87
2021/12/25 08:12:57;;;;;;;5.60;4.47;;;9.00;99.90;;;;;;5038905;28;20171;-87
2021/12/25 08:15:26;;;;;;;5.27;4.77;;;9.20;99.90;;;;;;5065290;28;20155;-88
2021/12/25 08:17:52;;;;;;;5.97;5.17;;;;;;;;;;5047218;28;20176;-87
2021/12/25 08:20:18;;;;;;;6.00;5.40;;;9.20;99.90;;;;;;5060375;28;20175;-88
2021/12/25 08:22:44;;;;;;;5.90;4.93;;;;;;;;;;5046540;28;20165;-87
2021/12/25 08:25:12;;;;;;;4.93;4.30;;;9.30;99.90;;;;;;5060704;28;20178;-86
2021/12/25 08:27:38;;;;;;;4.10;3.70;;;;;;;;;;5055986;28;20191;-85
2021/12/25 08:30:08;;;;;;;3.73;3.43;;;9.30;99.90;;;;;;5047819;28;20171;-87
2021/12/25 08:32:34;;;;;;;3.20;2.90;;;;;;;;;;5041901;28;20168;-87
2021/12/25 08:35:00;;;;;;;2.37;2.23;;;;;;;;;;5025304;28;20508;-87
2021/12/25 08:37:26;;;;;;;3.30;3.00;;;;;;;;;;5025745;28;20175;-85
2021/12/25 08:39:53;;;;;;;2.67;2.47;;;9.20;99.90;;;;;;5042109;28;20171;-87
2021/12/25 08:42:21;;;;;;;5.10;4.60;;;9.20;99.90;;;;;;5042859;28;20228;-86
2021/12/25 08:47:29;;;;;;;3.93;3.53;;;8.70;99.90;;;;;;5043378;28;20219;-84
2021/12/25 08:49:56;;;;;;;4.63;4.20;;;;;;;;;;5048390;28;20244;-85
2021/12/25 08:52:23;;;;;;;3.30;3.00;;;8.70;99.90;;;;;;5043510;28;20639;-86
2021/12/25 08:54:49;;;;;;;3.43;3.13;;;8.70;99.90;;;;;;5046896;28;20190;-86
2021/12/25 08:57:17;;;;;;;2.93;2.63;;;8.80;99.90;;;;;;5037563;28;20177;-87
2021/12/25 08:59:43;;;;;;;7.60;6.27;;;;;;;;;;5036890;28;20171;-86
2021/12/25 09:02:13;;;;;;;3.90;3.40;;;8.80;99.90;;;;;;5036790;28;20171;-86
2021/12/25 09:04:41;;;;;;;6.33;5.53;;;8.80;99.90;;;;;;5026579;28;20258;-87
2021/12/25 09:07:07;;;;;;;5.20;4.70;;;8.90;99.90;;;;;;5026364;28;20182;-86
2021/12/25 09:09:34;;;;;;;4.00;3.70;;;9.00;99.90;;;;;;5042379;28;20174;-86
2021/12/25 09:12:00;;;;;;;3.83;3.40;;;;;;;;;;5041979;28;20741;-85
2021/12/25 09:14:26;;;;;;;3.37;3.07;;;9.00;99.90;;;;;;5022641;28;20563;-86
2021/12/25 09:16:53;;;;;;;2.83;2.63;;;;;;;;;;5042156;28;20193;-86
2021/12/25 09:19:19;;;;;;;3.00;2.70;;;;;;;;;;5025238;28;20179;-86
2021/12/25 09:21:45;;;;;;;3.23;3.03;;;;;;;;;;5043245;28;20575;-86
2021/12/25 09:24:11;;;;;;;3.37;3.07;;;;;;;;;;5041540;28;20176;-87
2021/12/25 09:26:37;;;;;;;4.30;3.90;;;;;;;;;;5041564;28;20174;-85
2021/12/25 09:29:04;;;;;;;3.80;3.50;;;8.90;99.90;;;;;;5042762;28;20191;-91
2021/12/25 09:31:30;;;;;;;3.40;3.10;;;;;;;;;;5045941;28;20197;-93
2021/12/25 09:33:56;;;;;;;4.00;3.60;;;;;;;;;;5028835;28;20221;-89
2021/12/25 09:36:23;;;;;;;3.57;3.27;;;9.00;99.90;;;;;;5023867;28;20196;-90
2021/12/25 09:38:49;;;;;;;3.70;3.40;;;;;;;;;;5029156;28;20171;-91
2021/12/25 09:41:19;;;;;;;3.63;3.33;;;9.00;99.90;;;;;;5023355;28;20170;-92
2021/12/25 09:43:47;;;;;;;4.00;3.70;;;9.00;99.90;;;;;;5026024;28;20210;-90
2021/12/25 09:46:14;;;;;;;6.20;5.60;;;9.10;99.90;;;;;;5031655;28;20198;-92
2021/12/25 09:48:40;;;;;;;4.97;4.47;;;;;;;;;;5027949;28;20192;-91
2021/12/25 10:08:35;;;;;;;4.10;3.70;;;8.90;99.90;;;;;;4961332;28;20289;-91
2021/12/25 10:14:52;;;;;;;5.00;4.50;;;8.40;99.90;;;;;;4946177;28;20212;-91
2021/12/25 10:17:49;;;;;;;6.20;5.60;;;9.00;99.90;;;;;;5002189;28;20187;-92
2021/12/25 10:38:55;;;;;;;4.67;4.27;;;10.20;99.90;;;;;;4842360;29;20845;-92
2021/12/25 11:05:58;;;;;;;4.00;3.60;;;9.20;99.90;;;;;;4737027;30;20182;-91
2021/12/25 11:53:25;;;;;;;3.70;2.77;;;8.90;99.90;;;;;;5148743;27;20542;-57
2021/12/25 11:58:44;;;;;;;2.57;2.37;;;8.90;99.90;;;;;;5129543;28;20225;-55
2021/12/25 12:01:38;;;;;;;2.90;2.57;;;8.90;99.90;;;;;;5130108;28;20180;-57
2021/12/25 12:04:24;;;;;;;2.80;2.60;;;8.90;99.90;;;;;;5130274;28;20219;-56
2021/12/25 12:06:57;;;;;;;4.17;3.03;;;8.90;99.90;;;;;;5129885;28;20173;-56
2021/12/25 12:09:28;;;;;;;2.50;2.30;;;8.90;99.90;;;;;;5129694;28;20183;-51
2021/12/25 12:12:03;;;;;;;2.30;2.10;;;8.90;99.90;;;;;;5129877;28;20204;-51
2021/12/25 12:14:28;;;;;;;2.80;2.60;;;8.90;99.90;;;;;;5127768;28;20192;-53
2021/12/25 12:17:00;;;;;;;3.40;3.10;;;8.90;99.90;;;;;;5129797;28;20176;-52
2021/12/25 12:19:32;;;;;;;4.27;3.57;;;8.90;99.90;;;;;;5129571;28;20168;-56
2021/12/25 12:21:59;;;;;;;3.40;3.10;;;9.00;99.90;;;;;;5129262;28;20173;-52
2021/12/25 12:27:29;;;;;;;4.07;3.70;;;9.00;99.90;;;;;;5128218;28;20195;-54
2021/12/25 12:29:54;;;;;;;3.47;3.03;;;9.00;99.90;;;;;;5128314;28;20176;-55
2021/12/25 12:32:20;;;;;;;4.07;3.50;;;8.90;99.90;;;;;;5127679;28;20567;-54
2021/12/25 12:34:47;;;;;;;3.73;2.97;;;8.90;99.90;;;;;;5128804;27;20196;-54
2021/12/25 12:37:16;;;;;;;2.63;2.43;;;9.00;99.90;;;;;;5128869;27;20187;-55
2021/12/25 12:39:54;;;;;;;4.23;3.70;;;9.00;99.90;;;;;;5129290;28;20161;-54
2021/12/25 12:42:22;;;;;;;6.20;5.60;;;9.00;99.90;;;;;;5128964;28;20226;-56
2021/12/25 12:44:49;;;;;;;5.80;5.30;;;9.00;99.90;;;;;;5128584;27;20238;-52
2021/12/25 12:47:17;;;;;;;6.30;5.70;;;9.00;99.90;;;;;;5129205;27;20164;-55
2021/12/25 12:49:48;;;;;;;12.47;10.70;;;9.00;99.90;;;;;;5128748;27;20191;-54
2021/12/25 12:52:35;;;;;;;10.57;7.83;;;9.00;99.90;;;;;;5129113;28;20208;-53
2021/12/25 12:55:06;;;;;;;6.20;4.97;;;9.00;99.90;;;;;;5128250;27;20196;-51
2021/12/25 12:57:36;;;;;;;4.07;3.67;;;9.00;99.90;;;;;;5129144;27;20161;-52
2021/12/25 13:00:13;;;;;;;7.27;6.57;;;9.00;99.90;;;;;;5128702;27;20298;-48
2021/12/25 13:02:53;;;;;;;4.73;4.33;;;9.10;99.90;;;;;;5126166;27;20169;-52
2021/12/25 13:05:23;;;;;;;2.80;2.60;;;9.00;99.90;;;;;;5114465;28;20197;-56
2021/12/25 13:07:50;;;;;;;3.70;3.33;;;9.10;99.90;;;;;;5115391;28;20541;-53
2021/12/25 13:10:26;;;;;;;3.73;3.43;;;9.00;99.90;;;;;;5115227;28;20271;-51
2021/12/25 13:13:13;;;;;;;3.17;2.30;;;9.00;99.90;;;;;;5108487;28;20290;-52
2021/12/25 13:15:41;;;;;;;5.77;2.70;;;9.00;99.90;;;;;;5106828;28;20269;-50
2021/12/25 13:18:07;;;;;;;2.67;2.30;;;9.00;99.90;;;;;;5105169;28;20268;-52
2021/12/25 13:20:43;;;;;;;2.67;2.47;;;9.00;99.90;;;;;;5095783;28;20173;-55
2021/12/25 13:23:20;;;;;;;4.67;4.20;;;9.00;99.90;;;;;;5111924;28;20172;-56
2021/12/25 13:25:53;;;;;;;4.17;3.53;;;9.00;99.90;;;;;;5099737;28;20653;-56
2021/12/25 13:28:20;;;;;;;6.17;5.33;;;8.90;99.90;;;;;;5100206;28;20272;-57
2021/12/25 13:30:49;;;;;;;5.27;4.53;;;8.90;99.90;;;;;;5106316;28;20185;-54
2021/12/25 13:33:19;;;;;;;5.93;5.33;;;9.10;99.90;;;;;;5107878;28;20177;-45
2021/12/25 13:35:46;;;;;;;6.80;6.10;;;8.90;99.90;;;;;;5103598;28;20173;-55
2021/12/25 13:38:12;;;;;;;3.83;3.47;;;8.90;99.90;;;;;;5104445;28;20252;-54
2021/12/25 13:40:45;;;;;;;1.93;1.83;;;10.50;99.90;;;;;;5099248;28;20174;-55
2021/12/25 13:43:10;;;;;;;2.00;1.90;;;8.90;99.90;;;;;;5111837;28;20188;-52
2021/12/25 13:45:37;;;;;;;2.10;1.90;;;8.70;99.90;;;;;;5113483;28;20197;-57
2021/12/25 13:48:04;;;;;;;2.00;1.90;;;8.70;99.90;;;;;;5111370;28;20530;-59
2021/12/25 13:50:30;;;;;;;2.43;2.23;;;8.70;99.90;;;;;;5113247;28;20180;-53
2021/12/25 13:52:58;;;;;;;1.83;1.73;;;8.70;99.90;;;;;;5112765;28;20254;-54
2021/12/25 13:55:27;;;;;;;2.30;2.10;;;8.70;99.90;;;;;;5101159;28;20596;-58
2021/12/25 13:57:59;;;;;;;2.30;2.10;;;8.70;99.90;;;;;;5108289;28;20169;-52
2021/12/25 14:00:34;;;;;;;2.30;1.60;;;8.70;99.90;;;;;;5113009;28;20177;-52
2021/12/25 14:03:04;;;;;;;1.50;1.40;;;8.70;99.90;;;;;;5104297;28;20179;-56
2021/12/25 14:05:32;;;;;;;1.60;1.50;;;10.30;99.90;;;;;;5099058;28;20209;-55
2021/12/25 14:07:58;;;;;;;1.63;1.30;;;8.70;99.90;;;;;;5093774;28;20170;-57
2021/12/25 14:10:27;;;;;;;1.77;1.60;;;8.60;99.90;;;;;;5096313;28;20184;-56
2021/12/25 14:12:55;;;;;;;4.40;4.00;;;8.60;99.90;;;;;;5094662;28;20656;-54
2021/12/25 14:15:24;;;;;;;6.00;3.97;;;8.50;99.90;;;;;;5091226;28;20189;-52
2021/12/25 14:17:50;;;;;;;3.50;2.77;;;8.50;99.90;;;;;;5093174;28;20181;-56
2021/12/25 14:20:29;;;;;;;2.83;2.60;;;8.50;99.90;;;;;;5112741;28;20165;-56
2021/12/25 14:23:13;;;;;;;3.17;2.53;;;8.50;99.90;;;;;;5097412;28;20649;-56
2021/12/25 14:25:59;;;;;;;3.90;3.40;;;8.40;99.90;;;;;;5099808;28;20189;-55
2021/12/25 14:28:30;;;;;;;5.20;4.70;;;8.50;99.90;;;;;;5112832;28;20181;-52
2021/12/25 14:31:06;;;;;;;7.07;5.67;;;9.30;99.90;;;;;;5113131;28;20169;-57
2021/12/25 14:33:35;;;;;;;6.10;5.17;;;8.40;99.90;;;;;;5112440;28;20172;-56
2021/12/25 14:36:07;;;;;;;11.50;9.47;;;8.40;99.90;;;;;;5113005;28;20260;-54
2021/12/25 14:38:40;;;;;;;10.30;9.20;;;8.40;99.90;;;;;;5109559;28;20208;-58
2021/12/25 14:41:07;;;;;;;4.83;3.27;;;8.30;99.90;;;;;;5113146;28;20180;-56
2021/12/25 14:43:34;;;;;;;2.33;2.20;;;8.30;99.90;;;;;;5111550;28;20225;-54
2021/12/25 14:46:01;;;;;;;1.70;1.60;;;8.20;99.90;;;;;;5110722;28;20170;-54
2021/12/25 14:48:35;;;;;;;1.80;1.63;;;8.20;99.90;;;;;;5113177;28;20176;-54
2021/12/25 14:51:04;;;;;;;2.10;1.90;;;8.20;99.90;;;;;;5112719;28;20637;-55
2021/12/25 14:53:31;;;;;;;1.70;1.60;;;8.20;99.90;;;;;;5113178;28;20195;-56
2021/12/25 14:56:01;;;;;;;1.93;1.43;;;8.20;99.90;;;;;;5112419;28;20173;-54
2021/12/25 14:58:33;;;;;;;1.37;1.27;;;8.10;99.90;;;;;;5113369;28;20176;-55
2021/12/25 15:01:17;;;;;;;2.03;1.83;;;8.10;99.90;;;;;;5112520;28;20161;-54
2021/12/25 15:03:45;;;;;;;1.80;1.70;;;8.00;99.90;;;;;;5111661;28;20352;-51
2021/12/25 15:06:20;;;;;;;1.30;1.20;;;8.00;99.90;;;;;;5112604;28;20161;-53
2021/12/25 15:09:18;;;;;;;1.37;1.27;;;8.00;99.90;;;;;;5112934;28;20218;-55
2021/12/25 15:11:51;;;;;;;1.40;1.30;;;8.00;99.90;;;;;;5112505;28;20304;-55
2021/12/25 15:14:26;;;;;;;1.70;1.60;;;8.00;99.90;;;;;;5095151;27;20323;-54
2021/12/25 15:17:01;;;;;;;1.40;1.20;;;7.90;99.90;;;;;;5091983;28;20169;-54
2021/12/25 15:19:30;;;;;;;1.60;1.50;;;7.90;99.90;;;;;;5092193;28;20635;-56
2021/12/25 15:22:02;;;;;;;1.83;1.47;;;7.80;99.90;;;;;;5092150;28;20170;-52
2021/12/25 15:24:28;;;;;;;3.50;3.20;;;7.70;99.90;;;;;;5091924;28;20263;-54
2021/12/25 15:27:03;;;;;;;3.77;3.17;;;7.70;99.90;;;;;;5091833;28;20621;-55
2021/12/25 15:29:41;;;;;;;3.33;2.80;;;7.70;99.90;;;;;;5106382;28;20176;-55
2021/12/25 15:32:12;;;;;;;2.30;2.10;;;7.60;99.90;;;;;;5094349;28;20250;-55
2021/12/25 15:34:55;;;;;;;1.57;1.47;;;7.60;99.90;;;;;;5094365;28;20734;-55
2021/12/25 15:37:22;;;;;;;1.43;1.33;;;7.50;99.90;;;;;;5096384;28;20204;-56
2021/12/25 15:39:49;;;;;;;1.70;1.60;;;7.50;99.90;;;;;;5091489;28;20665;-54
2021/12/25 15:42:16;;;;;;;1.70;1.60;;;7.60;99.90;;;;;;5091988;28;20714;-54
2021/12/25 15:44:42;;;;;;;1.90;1.70;;;7.60;99.90;;;;;;5092024;28;20208;-53
2021/12/25 15:47:08;;;;;;;1.93;1.83;;;7.50;99.90;;;;;;5099324;28;20182;-56
2021/12/25 15:49:33;;;;;;;1.50;1.40;;;7.50;99.90;;;;;;5091811;28;20673;-56
2021/12/25 15:52:00;;;;;;;1.70;1.60;;;7.40;99.90;;;;;;5091827;28;20216;-55
2021/12/25 15:54:27;;;;;;;1.80;1.70;;;7.50;99.90;;;;;;5091277;28;20689;-55
2021/12/25 15:56:58;;;;;;;1.97;1.87;;;7.50;99.90;;;;;;5091819;28;20169;-54
2021/12/25 15:59:35;;;;;;;2.50;2.30;;;7.50;99.90;;;;;;5091715;28;20158;-53
2021/12/25 16:02:03;;;;;;;2.50;2.30;;;7.50;99.90;;;;;;5094698;28;20188;-53
2021/12/25 16:04:28;;;;;;;2.90;2.70;;;7.50;99.90;;;;;;5095764;28;20251;-55
2021/12/25 16:06:56;;;;;;;2.23;2.10;;;7.50;99.90;;;;;;5091381;28;20182;-52
2021/12/25 16:09:22;;;;;;;2.27;2.10;;;7.40;99.90;;;;;;5091899;28;20173;-53
2021/12/25 16:11:47;;;;;;;2.90;2.70;;;7.40;99.90;;;;;;5099384;28;20209;-53
2021/12/25 16:14:13;;;;;;;2.70;2.50;;;7.40;99.90;;;;;;5111423;28;20200;-52
2021/12/25 16:16:39;;;;;;;2.60;2.40;;;7.30;99.90;;;;;;5111561;28;20173;-52
2021/12/25 16:19:04;;;;;;;6.00;4.57;;;7.30;99.90;;;;;;5111811;28;20659;-54
2021/12/25 16:21:30;;;;;;;2.90;2.70;;;7.30;99.90;;;;;;5111554;28;20674;-50
2021/12/25 16:23:56;;;;;;;3.70;3.40;;;7.30;99.90;;;;;;5111409;28;20188;-54
2021/12/25 16:26:24;;;;;;;4.57;4.17;;;7.20;99.90;;;;;;5111823;28;20169;-48
2021/12/25 16:28:50;;;;;;;2.50;2.30;;;7.20;99.90;;;;;;5100953;28;20185;-54
2021/12/25 16:31:16;;;;;;;1.90;1.80;;;7.10;99.90;;;;;;5092249;28;20289;-55
2021/12/25 16:33:43;;;;;;;1.77;1.67;;;7.00;99.90;;;;;;5091259;28;20733;-52
2021/12/25 16:36:10;;;;;;;2.10;2.00;;;6.90;99.90;;;;;;5104886;28;20637;-54
2021/12/25 16:38:39;;;;;;;2.30;1.70;;;6.90;99.90;;;;;;5092436;28;20189;-52
2021/12/25 16:41:06;;;;;;;1.93;1.83;;;7.00;99.90;;;;;;5095176;28;20173;-53
2021/12/25 16:43:34;;;;;;;2.40;2.20;;;7.00;99.90;;;;;;5094877;28;20546;-55